Terminal Aerodrome Forecast
Issued by NWS Cleveland, OH

Home | Current Version | Previous Version | Text Only | Print | Product List | Glossary On
Versions: 1 2 3 4 5 6 7 8 9 10 11 12 13 14 15 16 17 18 19 20 21 22 23 24 25 26 27
000
FTUS41 KCLE 260700 AAA
TAFMFD
TAF AMD
KMFD 260706Z 2607/2706 02012KT 1SM -SN BR OVC020
      TEMPO 2607/2610 3/4SM -SN BKN012
     FM261000 02012KT 2SM -SN BR OVC015
      TEMPO 2610/2614 1SM -SN OVC008
     FM261400 36010KT 5SM -SN OVC008
     FM261800 34010KT P6SM -SN SCT012 OVC035
     FM270200 32004KT P6SM BKN045 OVC120=

USA.gov is the U.S. government's official web portal to all federal, state and local government web resources and services.